createdAt,value
2019-05-05T00:00:51.750Z,1.82
2019-05-05T00:06:15.469Z,1.82
2019-05-05T00:11:54.739Z,1.81
2019-05-05T00:17:20.799Z,1.88
2019-05-05T00:22:45.532Z,1.84
2019-05-05T00:28:11.484Z,1.78
2019-05-05T00:33:35.962Z,1.74
2019-05-05T00:39:00.534Z,1.70
2019-05-05T00:44:29.560Z,1.56
2019-05-05T00:49:56.158Z,1.31
2019-05-05T00:55:19.949Z,1.11
2019-05-05T01:01:02.791Z,0.96
2019-05-05T01:06:29.148Z,0.75
2019-05-05T01:11:55.023Z,0.54
2019-05-05T01:17:18.689Z,0.34
2019-05-05T01:22:44.820Z,0.30
2019-05-05T01:28:09.456Z,0.31
2019-05-05T01:33:38.584Z,0.40
2019-05-05T01:44:51.007Z,0.00
2019-05-05T01:50:20.665Z,0.04
2019-05-05T01:55:40.823Z,-0.18
2019-05-05T02:01:05.445Z,-0.09
2019-05-05T02:06:30.122Z,0.03
2019-05-05T02:11:55.004Z,-0.09
2019-05-05T02:17:19.901Z,0.01
2019-05-05T02:22:44.582Z,-0.34
2019-05-05T02:28:08.843Z,-0.35
2019-05-05T02:33:35.345Z,-0.21
2019-05-05T02:39:00.668Z,-0.09
2019-05-05T02:44:28.737Z,-0.04
2019-05-05T02:49:54.904Z,-0.13
2019-05-05T02:55:20.251Z,-0.37
2019-05-05T03:01:13.988Z,-0.43
2019-05-05T03:06:43.605Z,-0.61
2019-05-05T03:12:11.097Z,-0.59
2019-05-05T03:17:36.340Z,-0.46
2019-05-05T03:23:01.572Z,-0.42
2019-05-05T03:28:28.491Z,-0.35
2019-05-05T03:33:54.885Z,-0.28
2019-05-05T03:39:30.878Z,-0.31
2019-05-05T03:44:58.240Z,-0.30
2019-05-05T03:50:23.780Z,-0.38
2019-05-05T03:55:47.894Z,-0.35
2019-05-05T04:01:34.664Z,-0.32
2019-05-05T04:06:59.481Z,-0.20
2019-05-05T04:12:24.222Z,-0.01
2019-05-05T04:17:55.165Z,0.23
2019-05-05T04:23:18.818Z,0.68
2019-05-05T04:28:43.628Z,1.32
2019-05-05T04:34:08.046Z,1.89
2019-05-05T04:39:34.110Z,2.63
2019-05-05T04:44:58.701Z,3.15
2019-05-05T04:50:31.422Z,3.64
2019-05-05T04:55:55.886Z,4.22
2019-05-05T05:01:20.854Z,4.63
2019-05-05T05:06:48.266Z,5.00
2019-05-05T05:12:14.613Z,5.50
2019-05-05T05:17:47.515Z,6.12
2019-05-05T05:23:11.130Z,6.56
2019-05-05T05:28:35.044Z,6.73
2019-05-05T05:33:59.752Z,7.83
2019-05-05T05:39:35.271Z,9.36
2019-05-05T05:45:07.564Z,10.54
2019-05-05T05:50:35.149Z,11.46
2019-05-05T05:56:00.384Z,11.29
2019-05-05T06:01:25.223Z,11.55
2019-05-05T06:06:50.455Z,11.96
2019-05-05T06:12:15.208Z,9.80
2019-05-05T06:17:39.781Z,11.50
2019-05-05T06:23:05.519Z,12.05
2019-05-05T06:28:29.647Z,13.28
2019-05-05T06:33:54.324Z,12.46
2019-05-05T06:39:19.164Z,13.74
2019-05-05T06:44:47.028Z,14.03
2019-05-05T06:50:11.278Z,14.62
2019-05-05T06:55:35.320Z,14.68
2019-05-05T07:00:59.890Z,14.78
2019-05-05T07:06:24.280Z,15.16
2019-05-05T07:11:48.970Z,15.61
2019-05-05T07:17:14.129Z,15.77
2019-05-05T07:22:38.546Z,17.02
2019-05-05T07:28:04.233Z,16.85
2019-05-05T07:33:28.298Z,14.62
2019-05-05T07:38:54.684Z,13.36
2019-05-05T07:44:26.678Z,14.95
2019-05-05T07:49:44.394Z,16.09
2019-05-05T07:55:09.486Z,16.44
2019-05-05T08:00:34.362Z,16.85
2019-05-05T08:05:58.694Z,17.08
2019-05-05T08:11:23.926Z,17.48
2019-05-05T08:17:04.278Z,16.86
2019-05-05T08:22:27.831Z,14.09
2019-05-05T08:28:10.553Z,13.53
2019-05-05T08:33:34.180Z,14.94
2019-05-05T08:38:58.920Z,16.41
2019-05-05T08:44:23.750Z,16.06
2019-05-05T08:49:47.541Z,17.41
2019-05-05T08:55:13.948Z,17.66
2019-05-05T09:00:38.051Z,17.42
2019-05-05T09:06:01.974Z,18.75
2019-05-05T09:11:25.965Z,16.78
2019-05-05T09:16:49.718Z,17.62
2019-05-05T09:22:14.394Z,18.02
2019-05-05T09:27:45.224Z,14.91
2019-05-05T09:33:09.678Z,15.77
2019-05-05T09:38:34.886Z,17.02
2019-05-05T09:43:59.795Z,16.48
2019-05-05T09:49:24.754Z,16.84
2019-05-05T09:54:49.638Z,14.08
2019-05-05T10:00:15.230Z,12.46
2019-05-05T10:05:39.753Z,14.20
2019-05-05T10:11:04.174Z,16.03
2019-05-05T10:16:27.869Z,17.21
2019-05-05T10:21:51.802Z,18.30
2019-05-05T10:27:16.318Z,16.37
2019-05-05T10:32:39.938Z,17.43
2019-05-05T10:38:04.875Z,19.93
2019-05-05T10:43:28.586Z,19.17
2019-05-05T10:48:53.799Z,17.71
2019-05-05T10:54:18.910Z,18.18
2019-05-05T10:59:43.650Z,16.87
2019-05-05T11:05:08.345Z,15.34
2019-05-05T11:10:33.921Z,16.49
2019-05-05T11:15:58.198Z,19.66
2019-05-05T11:21:23.711Z,17.09
2019-05-05T11:26:47.551Z,15.08
2019-05-05T11:32:17.418Z,17.67
2019-05-05T11:37:41.182Z,17.14
2019-05-05T11:43:05.823Z,16.76
2019-05-05T11:48:29.865Z,14.70
2019-05-05T11:53:54.445Z,15.17
2019-05-05T11:59:19.139Z,16.50
2019-05-05T12:04:43.029Z,14.95
2019-05-05T12:10:09.426Z,14.11
2019-05-05T12:15:34.103Z,15.23
2019-05-05T12:20:58.166Z,14.08
2019-05-05T12:26:37.339Z,13.54
2019-05-05T12:32:01.689Z,14.72
2019-05-05T12:37:26.477Z,16.62
2019-05-05T12:42:50.052Z,19.44
2019-05-05T12:48:24.120Z,21.80
2019-05-05T12:53:48.691Z,19.28
2019-05-05T12:59:19.646Z,20.75
2019-05-05T13:04:44.224Z,19.55
2019-05-05T13:10:09.954Z,17.21
2019-05-05T13:15:35.432Z,15.39
2019-05-05T13:21:25.343Z,14.93
2019-05-05T13:27:10.969Z,14.35
2019-05-05T13:32:34.723Z,14.89
2019-05-05T13:37:59.185Z,15.17
2019-05-05T13:43:23.806Z,15.90
2019-05-05T13:48:48.936Z,17.05
2019-05-05T13:54:13.909Z,17.77
2019-05-05T13:59:37.657Z,18.79
2019-05-05T14:05:04.494Z,19.37
2019-05-05T14:10:27.972Z,17.41
2019-05-05T14:15:54.363Z,17.41
2019-05-05T14:21:18.375Z,16.79
2019-05-05T14:26:42.335Z,15.85
2019-05-05T14:32:08.385Z,15.55
2019-05-05T14:37:36.192Z,14.77
2019-05-05T14:43:00.583Z,13.89
2019-05-05T14:48:25.431Z,14.02
2019-05-05T14:53:50.154Z,14.40
2019-05-05T14:59:15.002Z,13.58
2019-05-05T15:04:43.714Z,14.15
2019-05-05T15:10:26.602Z,14.26
2019-05-05T15:15:51.316Z,14.52
2019-05-05T15:21:16.535Z,14.55
2019-05-05T15:26:49.770Z,14.24
2019-05-05T15:32:06.431Z,13.66
2019-05-05T15:37:30.307Z,13.64
2019-05-05T15:42:54.738Z,13.66
2019-05-05T15:48:19.388Z,13.49
2019-05-05T15:53:44.015Z,13.24
2019-05-05T15:59:08.658Z,13.29
2019-05-05T16:04:34.147Z,12.98
2019-05-05T16:09:59.118Z,13.04
2019-05-05T16:15:43.033Z,12.67
2019-05-05T16:21:18.498Z,12.70
2019-05-05T16:26:42.632Z,12.58
2019-05-05T16:32:17.868Z,12.41
2019-05-05T16:37:33.489Z,12.51
2019-05-05T16:42:57.979Z,12.08
2019-05-05T16:48:25.213Z,12.10
2019-05-05T16:53:47.535Z,11.80
2019-05-05T16:59:13.848Z,11.75
2019-05-05T17:04:38.073Z,11.46
2019-05-05T17:10:06.050Z,11.94
2019-05-05T17:15:59.940Z,12.56
2019-05-05T17:21:29.761Z,12.35
2019-05-05T17:26:54.951Z,11.99
2019-05-05T17:32:19.946Z,11.46
2019-05-05T17:37:44.565Z,11.15
2019-05-05T17:43:25.763Z,11.19
2019-05-05T17:49:04.779Z,11.13
2019-05-05T17:54:38.290Z,10.97
2019-05-05T18:00:04.326Z,10.75
2019-05-05T18:05:55.360Z,10.48
2019-05-05T18:11:25.368Z,10.20
2019-05-05T18:16:50.402Z,9.88
2019-05-05T18:22:15.285Z,9.69
2019-05-05T18:27:39.122Z,9.36
2019-05-05T18:33:04.230Z,9.04
2019-05-05T18:38:28.937Z,8.58
2019-05-05T18:44:03.821Z,8.13
2019-05-05T18:49:28.098Z,7.86
2019-05-05T18:54:54.495Z,7.59
2019-05-05T19:00:27.001Z,7.24
2019-05-05T19:05:55.886Z,7.00
2019-05-05T19:11:19.769Z,6.85
2019-05-05T19:16:43.748Z,6.80
2019-05-05T19:22:11.053Z,6.68
2019-05-05T19:27:35.527Z,6.58
2019-05-05T19:32:59.971Z,6.41
2019-05-05T19:38:24.422Z,6.20
2019-05-05T19:43:55.149Z,5.90
2019-05-05T19:49:19.578Z,6.01
2019-05-05T19:54:47.483Z,5.89
2019-05-05T20:00:10.324Z,6.05
2019-05-05T20:05:35.549Z,6.23
2019-05-05T20:10:59.489Z,6.41
2019-05-05T20:16:36.232Z,6.35
2019-05-05T20:22:01.118Z,6.09
2019-05-05T20:27:25.182Z,5.80
2019-05-05T20:32:58.654Z,5.62
2019-05-05T20:38:28.492Z,5.67
2019-05-05T20:43:54.282Z,5.67
2019-05-05T20:49:19.232Z,5.58
2019-05-05T20:54:44.127Z,5.55
2019-05-05T21:00:09.858Z,5.48
2019-05-05T21:05:35.511Z,5.43
2019-05-05T21:11:00.045Z,5.44
2019-05-05T21:16:24.856Z,5.46
2019-05-05T21:21:54.270Z,5.52
2019-05-05T21:27:17.738Z,5.49
2019-05-05T21:32:43.481Z,5.44
2019-05-05T21:38:07.127Z,5.43
2019-05-05T21:43:31.247Z,5.46
2019-05-05T21:48:55.636Z,5.39
2019-05-05T21:54:38.233Z,5.38
2019-05-05T22:00:06.175Z,5.40
2019-05-05T22:05:31.170Z,5.47
2019-05-05T22:10:56.050Z,5.58
2019-05-05T22:16:20.987Z,5.63
2019-05-05T22:21:49.851Z,5.72
2019-05-05T22:27:13.493Z,5.70
2019-05-05T22:32:37.774Z,5.67
2019-05-05T22:38:05.791Z,5.63
2019-05-05T22:43:27.664Z,5.51
2019-05-05T22:48:54.443Z,5.32
2019-05-05T22:54:18.181Z,5.29
2019-05-05T22:59:42.988Z,5.28
2019-05-05T23:05:14.961Z,5.10
2019-05-05T23:10:40.010Z,4.94
2019-05-05T23:16:14.594Z,4.77
2019-05-05T23:21:49.930Z,4.71
2019-05-05T23:27:34.374Z,4.59
2019-05-05T23:32:59.983Z,4.41
2019-05-05T23:38:24.761Z,4.30
2019-05-05T23:43:49.889Z,4.22
2019-05-05T23:49:14.450Z,4.23
2019-05-05T23:54:38.426Z,4.33
